Gongxian, China
Current Conditions -  °F | °C
As of 11:00 AM on Saturday 25 Oct 2014 (Local Time) from ZHCC Reporting Station
Haze Haze  
Wind Chill: 72°   Ceiling: Unl
Heat Index: 72°   Visibility: 1.2mi
Dew Point: 59°   Wind: 7mph
Humidity: 64%   Direction: 190°S
Pressure: 29.94"   Gusts: NA
Location:  34.77°N, 112.95°E
Report Text: ZHCC 250300Z 19003MPS 140V230 2000 HZ NSC 22/15 Q1014 BECMG3000
Loading
Personal Weather Stations






























Interactive Weather Map
Tropical Storm Tracking
New forecast layout! Learn more

10-Day Weather Forecast

Advertisements
Track Severe Weather on mobile